sensor_id;sensor_type;location;lat;lon;timestamp;temperature;humidity
16970;DHT22;8601;48.718;8.992;2022-12-08T00:00:19;0.60;99.90
16970;DHT22;8601;48.718;8.992;2022-12-08T00:02:46;0.60;99.90
16970;DHT22;8601;48.718;8.992;2022-12-08T00:05:16;0.60;99.90
16970;DHT22;8601;48.718;8.992;2022-12-08T00:08:02;0.50;99.90
16970;DHT22;8601;48.718;8.992;2022-12-08T00:10:46;0.50;99.90
16970;DHT22;8601;48.718;8.992;2022-12-08T00:13:31;0.60;99.90
16970;DHT22;8601;48.718;8.992;2022-12-08T00:15:59;0.70;99.90
16970;DHT22;8601;48.718;8.992;2022-12-08T00:18:27;0.60;99.90
16970;DHT22;8601;48.718;8.992;2022-12-08T00:20:54;0.50;99.90
16970;DHT22;8601;48.718;8.992;2022-12-08T00:23:23;0.50;99.90
16970;DHT22;8601;48.718;8.992;2022-12-08T00:25:50;0.40;99.90
16970;DHT22;8601;48.718;8.992;2022-12-08T00:28:17;0.40;99.90
16970;DHT22;8601;48.718;8.992;2022-12-08T00:30:44;0.40;99.90
16970;DHT22;8601;48.718;8.992;2022-12-08T00:33:12;0.30;99.90
16970;DHT22;8601;48.718;8.992;2022-12-08T00:35:39;0.30;99.90
16970;DHT22;8601;48.718;8.992;2022-12-08T00:38:06;0.70;99.90
16970;DHT22;8601;48.718;8.992;2022-12-08T00:40:34;0.60;99.90
16970;DHT22;8601;48.718;8.992;2022-12-08T00:43:01;0.50;99.90
16970;DHT22;8601;48.718;8.992;2022-12-08T00:45:28;0.40;99.90
16970;DHT22;8601;48.718;8.992;2022-12-08T00:47:55;0.40;99.90
16970;DHT22;8601;48.718;8.992;2022-12-08T00:50:22;0.40;99.90
16970;DHT22;8601;48.718;8.992;2022-12-08T00:52:49;0.30;99.90
16970;DHT22;8601;48.718;8.992;2022-12-08T00:55:17;0.20;99.90
16970;DHT22;8601;48.718;8.992;2022-12-08T00:57:45;0.10;99.90
16970;DHT22;8601;48.718;8.992;2022-12-08T01:00:20;0.20;99.90
16970;DHT22;8601;48.718;8.992;2022-12-08T01:02:47;0.10;99.90
16970;DHT22;8601;48.718;8.992;2022-12-08T01:05:14;0.10;99.90
16970;DHT22;8601;48.718;8.992;2022-12-08T01:07:41;0.10;99.90
16970;DHT22;8601;48.718;8.992;2022-12-08T01:10:18;0.10;99.90
16970;DHT22;8601;48.718;8.992;2022-12-08T01:12:46;0.10;99.90
16970;DHT22;8601;48.718;8.992;2022-12-08T01:15:13;0.10;99.90
16970;DHT22;8601;48.718;8.992;2022-12-08T01:17:40;0.00;99.90
16970;DHT22;8601;48.718;8.992;2022-12-08T01:20:07;-0.10;99.90
16970;DHT22;8601;48.718;8.992;2022-12-08T01:22:34;-0.10;99.90
16970;DHT22;8601;48.718;8.992;2022-12-08T01:25:01;-0.10;99.90
16970;DHT22;8601;48.718;8.992;2022-12-08T01:27:28;-0.10;99.90
16970;DHT22;8601;48.718;8.992;2022-12-08T01:29:56;0.00;99.90
16970;DHT22;8601;48.718;8.992;2022-12-08T01:32:23;0.10;99.90
16970;DHT22;8601;48.718;8.992;2022-12-08T01:34:50;0.20;99.90
16970;DHT22;8601;48.718;8.992;2022-12-08T01:37:17;0.20;99.90
16970;DHT22;8601;48.718;8.992;2022-12-08T01:39:44;0.30;99.90
16970;DHT22;8601;48.718;8.992;2022-12-08T01:42:19;0.30;99.90
16970;DHT22;8601;48.718;8.992;2022-12-08T01:44:54;0.20;99.90
16970;DHT22;8601;48.718;8.992;2022-12-08T01:47:26;0.10;99.90
16970;DHT22;8601;48.718;8.992;2022-12-08T01:49:54;0.20;99.90
16970;DHT22;8601;48.718;8.992;2022-12-08T01:52:26;0.20;99.90
16970;DHT22;8601;48.718;8.992;2022-12-08T01:54:57;0.20;99.90
16970;DHT22;8601;48.718;8.992;2022-12-08T01:57:29;0.20;99.90
16970;DHT22;8601;48.718;8.992;2022-12-08T02:00:00;0.20;99.90
16970;DHT22;8601;48.718;8.992;2022-12-08T02:02:32;0.30;99.90
16970;DHT22;8601;48.718;8.992;2022-12-08T02:05:02;0.30;99.90
16970;DHT22;8601;48.718;8.992;2022-12-08T02:07:30;0.30;99.90
16970;DHT22;8601;48.718;8.992;2022-12-08T02:09:57;0.30;99.90
16970;DHT22;8601;48.718;8.992;2022-12-08T02:12:24;0.10;99.90
16970;DHT22;8601;48.718;8.992;2022-12-08T02:14:51;0.10;99.90
16970;DHT22;8601;48.718;8.992;2022-12-08T02:17:30;0.00;99.90
16970;DHT22;8601;48.718;8.992;2022-12-08T02:20:15;0.00;99.90
16970;DHT22;8601;48.718;8.992;2022-12-08T02:22:53;0.00;99.90
16970;DHT22;8601;48.718;8.992;2022-12-08T02:25:27;0.00;99.90
16970;DHT22;8601;48.718;8.992;2022-12-08T02:28:06;0.00;99.90
16970;DHT22;8601;48.718;8.992;2022-12-08T02:30:41;0.00;99.90
16970;DHT22;8601;48.718;8.992;2022-12-08T02:33:38;0.10;99.90
16970;DHT22;8601;48.718;8.992;2022-12-08T02:36:13;0.10;99.90
16970;DHT22;8601;48.718;8.992;2022-12-08T02:38:46;0.00;99.90
16970;DHT22;8601;48.718;8.992;2022-12-08T02:41:22;0.00;99.90
16970;DHT22;8601;48.718;8.992;2022-12-08T02:43:56;0.00;99.90
16970;DHT22;8601;48.718;8.992;2022-12-08T02:46:27;-0.10;99.90
16970;DHT22;8601;48.718;8.992;2022-12-08T02:48:57;-0.10;99.90
16970;DHT22;8601;48.718;8.992;2022-12-08T02:51:24;0.00;99.90
16970;DHT22;8601;48.718;8.992;2022-12-08T02:53:51;0.00;99.90
16970;DHT22;8601;48.718;8.992;2022-12-08T02:56:37;0.00;99.90
16970;DHT22;8601;48.718;8.992;2022-12-08T02:59:16;0.00;99.90
16970;DHT22;8601;48.718;8.992;2022-12-08T03:02:04;0.00;99.90
16970;DHT22;8601;48.718;8.992;2022-12-08T03:04:44;-0.10;99.90
16970;DHT22;8601;48.718;8.992;2022-12-08T03:07:18;-0.10;99.90
16970;DHT22;8601;48.718;8.992;2022-12-08T03:09:50;-0.10;99.90
16970;DHT22;8601;48.718;8.992;2022-12-08T03:12:25;-0.10;99.90
16970;DHT22;8601;48.718;8.992;2022-12-08T03:14:57;-0.10;99.90
16970;DHT22;8601;48.718;8.992;2022-12-08T03:17:27;-0.10;99.90
16970;DHT22;8601;48.718;8.992;2022-12-08T03:20:07;-0.10;99.90
16970;DHT22;8601;48.718;8.992;2022-12-08T03:22:37;-0.10;99.90
16970;DHT22;8601;48.718;8.992;2022-12-08T03:25:06;-0.20;99.90
16970;DHT22;8601;48.718;8.992;2022-12-08T03:27:33;-0.40;99.90
16970;DHT22;8601;48.718;8.992;2022-12-08T03:30:00;-0.40;99.90
16970;DHT22;8601;48.718;8.992;2022-12-08T03:32:32;-0.50;99.90
16970;DHT22;8601;48.718;8.992;2022-12-08T03:35:03;-0.50;99.90
16970;DHT22;8601;48.718;8.992;2022-12-08T03:37:34;-0.50;99.90
16970;DHT22;8601;48.718;8.992;2022-12-08T03:40:01;-0.50;99.90
16970;DHT22;8601;48.718;8.992;2022-12-08T03:42:28;-0.50;99.90
16970;DHT22;8601;48.718;8.992;2022-12-08T03:44:54;-0.40;99.90
16970;DHT22;8601;48.718;8.992;2022-12-08T03:47:21;-0.50;99.90
16970;DHT22;8601;48.718;8.992;2022-12-08T03:49:48;-0.50;99.90
16970;DHT22;8601;48.718;8.992;2022-12-08T03:52:15;-0.50;99.90
16970;DHT22;8601;48.718;8.992;2022-12-08T03:54:44;-0.50;99.90
16970;DHT22;8601;48.718;8.992;2022-12-08T03:57:10;-0.50;99.90
16970;DHT22;8601;48.718;8.992;2022-12-08T03:59:37;-0.50;99.90
16970;DHT22;8601;48.718;8.992;2022-12-08T04:02:04;-0.40;99.90
16970;DHT22;8601;48.718;8.992;2022-12-08T04:04:31;-0.40;99.90
16970;DHT22;8601;48.718;8.992;2022-12-08T04:06:58;-0.50;99.90
16970;DHT22;8601;48.718;8.992;2022-12-08T04:09:25;-0.60;99.90
16970;DHT22;8601;48.718;8.992;2022-12-08T04:11:53;-0.60;99.90
16970;DHT22;8601;48.718;8.992;2022-12-08T04:14:21;-0.70;99.90
16970;DHT22;8601;48.718;8.992;2022-12-08T04:16:47;-0.80;99.90
16970;DHT22;8601;48.718;8.992;2022-12-08T04:19:14;-0.80;99.90
16970;DHT22;8601;48.718;8.992;2022-12-08T04:21:41;-0.90;99.90
16970;DHT22;8601;48.718;8.992;2022-12-08T04:24:08;-0.80;99.90
16970;DHT22;8601;48.718;8.992;2022-12-08T04:26:35;-0.80;99.90
16970;DHT22;8601;48.718;8.992;2022-12-08T04:29:03;-0.80;99.90
16970;DHT22;8601;48.718;8.992;2022-12-08T04:31:30;-0.90;99.90
16970;DHT22;8601;48.718;8.992;2022-12-08T04:33:58;-1.00;99.90
16970;DHT22;8601;48.718;8.992;2022-12-08T04:36:25;-1.00;99.90
16970;DHT22;8601;48.718;8.992;2022-12-08T04:38:52;-1.00;99.90
16970;DHT22;8601;48.718;8.992;2022-12-08T04:41:19;-1.00;99.90
16970;DHT22;8601;48.718;8.992;2022-12-08T04:43:46;-0.90;99.90
16970;DHT22;8601;48.718;8.992;2022-12-08T04:46:28;-0.90;99.90
16970;DHT22;8601;48.718;8.992;2022-12-08T04:48:55;-1.00;99.90
16970;DHT22;8601;48.718;8.992;2022-12-08T04:51:22;-1.00;99.90
16970;DHT22;8601;48.718;8.992;2022-12-08T04:54:04;-1.00;99.90
16970;DHT22;8601;48.718;8.992;2022-12-08T04:56:31;-1.00;99.90
16970;DHT22;8601;48.718;8.992;2022-12-08T04:58:58;-1.10;99.90
16970;DHT22;8601;48.718;8.992;2022-12-08T05:01:25;-1.10;99.90
16970;DHT22;8601;48.718;8.992;2022-12-08T05:03:53;-1.10;99.90
16970;DHT22;8601;48.718;8.992;2022-12-08T05:06:20;-1.10;99.90
16970;DHT22;8601;48.718;8.992;2022-12-08T05:08:47;-1.10;99.90
16970;DHT22;8601;48.718;8.992;2022-12-08T05:11:14;-1.00;99.90
16970;DHT22;8601;48.718;8.992;2022-12-08T05:13:41;-0.90;99.90
16970;DHT22;8601;48.718;8.992;2022-12-08T05:16:09;-0.90;99.90
16970;DHT22;8601;48.718;8.992;2022-12-08T05:18:37;-0.80;99.90
16970;DHT22;8601;48.718;8.992;2022-12-08T05:21:06;-0.80;99.90
16970;DHT22;8601;48.718;8.992;2022-12-08T05:23:34;-0.80;99.90
16970;DHT22;8601;48.718;8.992;2022-12-08T05:26:01;-0.70;99.90
16970;DHT22;8601;48.718;8.992;2022-12-08T05:28:28;-0.70;99.90
16970;DHT22;8601;48.718;8.992;2022-12-08T05:30:54;-0.80;99.90
16970;DHT22;8601;48.718;8.992;2022-12-08T05:33:21;-0.70;99.90
16970;DHT22;8601;48.718;8.992;2022-12-08T05:35:50;-0.80;99.90
16970;DHT22;8601;48.718;8.992;2022-12-08T05:38:18;-0.90;99.90
16970;DHT22;8601;48.718;8.992;2022-12-08T05:40:45;-1.00;99.90
16970;DHT22;8601;48.718;8.992;2022-12-08T05:43:12;-1.10;99.90
16970;DHT22;8601;48.718;8.992;2022-12-08T05:45:39;-1.20;99.90
16970;DHT22;8601;48.718;8.992;2022-12-08T05:48:06;1.30;99.90
16970;DHT22;8601;48.718;8.992;2022-12-08T05:50:33;0.30;99.90
16970;DHT22;8601;48.718;8.992;2022-12-08T05:53:00;-0.10;99.90
16970;DHT22;8601;48.718;8.992;2022-12-08T05:55:28;-0.50;99.90
16970;DHT22;8601;48.718;8.992;2022-12-08T05:58:02;-0.80;99.90
16970;DHT22;8601;48.718;8.992;2022-12-08T06:00:29;-1.00;99.90
16970;DHT22;8601;48.718;8.992;2022-12-08T06:02:59;-1.20;99.90
16970;DHT22;8601;48.718;8.992;2022-12-08T06:05:26;-1.30;99.90
16970;DHT22;8601;48.718;8.992;2022-12-08T06:07:53;-1.30;99.90
16970;DHT22;8601;48.718;8.992;2022-12-08T06:10:20;-1.30;99.90
16970;DHT22;8601;48.718;8.992;2022-12-08T06:12:48;-1.40;99.90
16970;DHT22;8601;48.718;8.992;2022-12-08T06:15:47;-1.40;99.90
16970;DHT22;8601;48.718;8.992;2022-12-08T06:18:14;-1.60;99.90
16970;DHT22;8601;48.718;8.992;2022-12-08T06:20:41;-1.60;99.90
16970;DHT22;8601;48.718;8.992;2022-12-08T06:23:08;-1.60;99.90
16970;DHT22;8601;48.718;8.992;2022-12-08T06:25:35;-1.50;99.90
16970;DHT22;8601;48.718;8.992;2022-12-08T06:28:05;-1.60;99.90
16970;DHT22;8601;48.718;8.992;2022-12-08T06:30:33;-1.50;99.90
16970;DHT22;8601;48.718;8.992;2022-12-08T06:33:00;1.10;99.90
16970;DHT22;8601;48.718;8.992;2022-12-08T06:35:28;1.30;99.90
16970;DHT22;8601;48.718;8.992;2022-12-08T06:37:55;0.60;99.90
16970;DHT22;8601;48.718;8.992;2022-12-08T06:40:22;0.10;99.90
16970;DHT22;8601;48.718;8.992;2022-12-08T06:42:49;-0.10;99.90
16970;DHT22;8601;48.718;8.992;2022-12-08T06:45:17;-0.40;99.90
16970;DHT22;8601;48.718;8.992;2022-12-08T06:47:44;-0.70;99.90
16970;DHT22;8601;48.718;8.992;2022-12-08T06:50:15;-0.80;99.90
16970;DHT22;8601;48.718;8.992;2022-12-08T06:52:42;-0.90;99.90
16970;DHT22;8601;48.718;8.992;2022-12-08T06:55:10;-1.00;99.90
16970;DHT22;8601;48.718;8.992;2022-12-08T06:57:37;-1.10;99.90
16970;DHT22;8601;48.718;8.992;2022-12-08T07:00:06;-1.10;99.90
16970;DHT22;8601;48.718;8.992;2022-12-08T07:02:34;-1.20;99.90
16970;DHT22;8601;48.718;8.992;2022-12-08T07:05:01;-1.40;99.90
16970;DHT22;8601;48.718;8.992;2022-12-08T07:07:28;-1.50;99.90
16970;DHT22;8601;48.718;8.992;2022-12-08T07:09:55;-1.60;99.90
16970;DHT22;8601;48.718;8.992;2022-12-08T07:12:22;-1.60;99.90
16970;DHT22;8601;48.718;8.992;2022-12-08T07:14:49;-1.70;99.90
16970;DHT22;8601;48.718;8.992;2022-12-08T07:17:16;-1.70;99.90
16970;DHT22;8601;48.718;8.992;2022-12-08T07:19:44;-1.80;99.90
16970;DHT22;8601;48.718;8.992;2022-12-08T07:22:11;-1.70;99.90
16970;DHT22;8601;48.718;8.992;2022-12-08T07:24:38;-1.80;99.90
16970;DHT22;8601;48.718;8.992;2022-12-08T07:27:04;-1.70;99.90
16970;DHT22;8601;48.718;8.992;2022-12-08T07:29:32;-1.60;99.90
16970;DHT22;8601;48.718;8.992;2022-12-08T07:31:59;-1.50;99.90
16970;DHT22;8601;48.718;8.992;2022-12-08T07:34:26;-1.40;99.90
16970;DHT22;8601;48.718;8.992;2022-12-08T07:36:55;-1.40;99.90
16970;DHT22;8601;48.718;8.992;2022-12-08T07:39:21;-1.40;99.90
16970;DHT22;8601;48.718;8.992;2022-12-08T07:41:48;-1.30;99.90
16970;DHT22;8601;48.718;8.992;2022-12-08T07:44:15;-1.30;99.90
16970;DHT22;8601;48.718;8.992;2022-12-08T07:46:53;-1.30;99.90
16970;DHT22;8601;48.718;8.992;2022-12-08T07:49:20;-1.20;99.90
16970;DHT22;8601;48.718;8.992;2022-12-08T07:51:47;-1.10;99.90
16970;DHT22;8601;48.718;8.992;2022-12-08T07:54:15;-1.00;99.90
16970;DHT22;8601;48.718;8.992;2022-12-08T07:56:42;-0.90;99.90
16970;DHT22;8601;48.718;8.992;2022-12-08T07:59:09;-0.80;99.90
16970;DHT22;8601;48.718;8.992;2022-12-08T08:01:36;-0.80;99.90
16970;DHT22;8601;48.718;8.992;2022-12-08T08:04:24;-0.80;99.90
16970;DHT22;8601;48.718;8.992;2022-12-08T08:06:51;-0.70;99.90
16970;DHT22;8601;48.718;8.992;2022-12-08T08:12:42;-0.70;99.90
16970;DHT22;8601;48.718;8.992;2022-12-08T08:15:34;-0.60;99.90
16970;DHT22;8601;48.718;8.992;2022-12-08T08:18:01;-0.60;99.90
16970;DHT22;8601;48.718;8.992;2022-12-08T08:20:35;-0.60;99.90
16970;DHT22;8601;48.718;8.992;2022-12-08T08:23:01;-0.60;99.90
16970;DHT22;8601;48.718;8.992;2022-12-08T08:25:28;-0.60;99.90
16970;DHT22;8601;48.718;8.992;2022-12-08T08:31:23;-0.50;99.90
16970;DHT22;8601;48.718;8.992;2022-12-08T08:33:52;-0.50;99.90
16970;DHT22;8601;48.718;8.992;2022-12-08T08:36:19;-0.40;99.90
16970;DHT22;8601;48.718;8.992;2022-12-08T08:38:46;-0.40;99.90
16970;DHT22;8601;48.718;8.992;2022-12-08T08:41:13;-0.30;99.90
16970;DHT22;8601;48.718;8.992;2022-12-08T08:43:40;-0.10;99.90
16970;DHT22;8601;48.718;8.992;2022-12-08T08:46:08;0.00;99.90
16970;DHT22;8601;48.718;8.992;2022-12-08T08:48:36;0.10;99.90
16970;DHT22;8601;48.718;8.992;2022-12-08T08:51:29;0.20;99.90
16970;DHT22;8601;48.718;8.992;2022-12-08T08:54:16;0.30;99.90
16970;DHT22;8601;48.718;8.992;2022-12-08T08:57:13;0.40;99.90
16970;DHT22;8601;48.718;8.992;2022-12-08T08:59:40;0.60;99.90
16970;DHT22;8601;48.718;8.992;2022-12-08T09:02:11;0.70;99.90
16970;DHT22;8601;48.718;8.992;2022-12-08T09:04:57;0.70;99.90
16970;DHT22;8601;48.718;8.992;2022-12-08T09:07:24;0.70;99.90
16970;DHT22;8601;48.718;8.992;2022-12-08T09:09:51;0.80;99.90
16970;DHT22;8601;48.718;8.992;2022-12-08T09:12:26;0.80;99.90
16970;DHT22;8601;48.718;8.992;2022-12-08T09:14:53;0.70;99.90
16970;DHT22;8601;48.718;8.992;2022-12-08T09:17:20;0.60;99.90
16970;DHT22;8601;48.718;8.992;2022-12-08T09:19:48;0.60;99.90
16970;DHT22;8601;48.718;8.992;2022-12-08T09:22:17;0.70;99.90
16970;DHT22;8601;48.718;8.992;2022-12-08T09:24:55;0.60;99.90
16970;DHT22;8601;48.718;8.992;2022-12-08T09:27:22;0.70;99.90
16970;DHT22;8601;48.718;8.992;2022-12-08T09:29:48;0.70;99.90
16970;DHT22;8601;48.718;8.992;2022-12-08T09:32:17;0.70;99.90
16970;DHT22;8601;48.718;8.992;2022-12-08T09:35:15;0.70;99.90
16970;DHT22;8601;48.718;8.992;2022-12-08T09:37:44;0.80;99.90
16970;DHT22;8601;48.718;8.992;2022-12-08T09:40:15;0.90;99.90
16970;DHT22;8601;48.718;8.992;2022-12-08T09:42:52;0.90;99.90
16970;DHT22;8601;48.718;8.992;2022-12-08T09:45:33;1.00;99.90
16970;DHT22;8601;48.718;8.992;2022-12-08T09:48:14;1.10;99.90
16970;DHT22;8601;48.718;8.992;2022-12-08T09:50:45;1.10;99.90
16970;DHT22;8601;48.718;8.992;2022-12-08T09:53:33;1.20;99.90
16970;DHT22;8601;48.718;8.992;2022-12-08T09:56:03;1.30;99.90
16970;DHT22;8601;48.718;8.992;2022-12-08T09:58:37;2.90;99.90
16970;DHT22;8601;48.718;8.992;2022-12-08T10:01:12;2.50;99.90
16970;DHT22;8601;48.718;8.992;2022-12-08T10:03:40;2.40;99.90
16970;DHT22;8601;48.718;8.992;2022-12-08T10:06:13;2.30;99.90
16970;DHT22;8601;48.718;8.992;2022-12-08T10:08:50;2.40;99.90
16970;DHT22;8601;48.718;8.992;2022-12-08T10:11:26;2.70;99.90
16970;DHT22;8601;48.718;8.992;2022-12-08T10:13:59;2.90;99.90
16970;DHT22;8601;48.718;8.992;2022-12-08T10:16:33;3.00;99.90
16970;DHT22;8601;48.718;8.992;2022-12-08T10:19:11;3.00;99.90
16970;DHT22;8601;48.718;8.992;2022-12-08T10:21:39;2.80;99.90
16970;DHT22;8601;48.718;8.992;2022-12-08T10:24:14;3.00;99.90
16970;DHT22;8601;48.718;8.992;2022-12-08T10:26:42;3.30;99.90
16970;DHT22;8601;48.718;8.992;2022-12-08T10:29:11;3.70;99.90
16970;DHT22;8601;48.718;8.992;2022-12-08T10:31:40;4.00;99.90
16970;DHT22;8601;48.718;8.992;2022-12-08T10:34:15;4.10;99.90
16970;DHT22;8601;48.718;8.992;2022-12-08T10:36:48;4.30;99.90
16970;DHT22;8601;48.718;8.992;2022-12-08T10:39:39;4.20;99.90
16970;DHT22;8601;48.718;8.992;2022-12-08T10:42:16;4.30;99.90
16970;DHT22;8601;48.718;8.992;2022-12-08T10:44:53;4.30;99.90
16970;DHT22;8601;48.718;8.992;2022-12-08T10:47:23;4.40;99.90
16970;DHT22;8601;48.718;8.992;2022-12-08T10:50:15;4.20;99.90
16970;DHT22;8601;48.718;8.992;2022-12-08T10:52:44;4.20;99.90
16970;DHT22;8601;48.718;8.992;2022-12-08T10:55:17;4.10;99.90
16970;DHT22;8601;48.718;8.992;2022-12-08T10:57:44;3.80;99.90
16970;DHT22;8601;48.718;8.992;2022-12-08T11:00:14;3.60;99.90
16970;DHT22;8601;48.718;8.992;2022-12-08T11:02:54;3.50;99.90
16970;DHT22;8601;48.718;8.992;2022-12-08T11:05:22;3.40;99.90
16970;DHT22;8601;48.718;8.992;2022-12-08T11:07:53;3.20;99.90
16970;DHT22;8601;48.718;8.992;2022-12-08T11:10:32;3.10;99.90
16970;DHT22;8601;48.718;8.992;2022-12-08T11:13:05;3.10;99.90
16970;DHT22;8601;48.718;8.992;2022-12-08T11:15:37;2.90;99.90
16970;DHT22;8601;48.718;8.992;2022-12-08T11:18:08;2.90;99.90
16970;DHT22;8601;48.718;8.992;2022-12-08T11:20:40;2.80;99.90
16970;DHT22;8601;48.718;8.992;2022-12-08T11:23:19;2.80;99.90
16970;DHT22;8601;48.718;8.992;2022-12-08T11:32:07;2.80;99.90
16970;DHT22;8601;48.718;8.992;2022-12-08T11:34:40;2.90;99.90
16970;DHT22;8601;48.718;8.992;2022-12-08T11:37:14;2.90;99.90
16970;DHT22;8601;48.718;8.992;2022-12-08T11:39:48;2.80;99.90
16970;DHT22;8601;48.718;8.992;2022-12-08T11:42:20;2.80;99.90
16970;DHT22;8601;48.718;8.992;2022-12-08T11:44:51;2.70;99.90
16970;DHT22;8601;48.718;8.992;2022-12-08T11:47:24;2.70;99.90
16970;DHT22;8601;48.718;8.992;2022-12-08T11:49:55;2.60;99.90
16970;DHT22;8601;48.718;8.992;2022-12-08T11:52:28;2.80;99.90
16970;DHT22;8601;48.718;8.992;2022-12-08T11:58:21;2.70;99.90
16970;DHT22;8601;48.718;8.992;2022-12-08T12:00:49;2.70;99.90
16970;DHT22;8601;48.718;8.992;2022-12-08T12:03:24;2.70;99.90
16970;DHT22;8601;48.718;8.992;2022-12-08T12:06:19;2.70;99.90
16970;DHT22;8601;48.718;8.992;2022-12-08T12:08:54;2.70;99.90
16970;DHT22;8601;48.718;8.992;2022-12-08T12:11:36;2.70;99.90
16970;DHT22;8601;48.718;8.992;2022-12-08T12:14:44;2.60;99.90
16970;DHT22;8601;48.718;8.992;2022-12-08T12:17:24;2.60;99.90
16970;DHT22;8601;48.718;8.992;2022-12-08T12:20:02;4.10;99.90
16970;DHT22;8601;48.718;8.992;2022-12-08T12:22:33;3.60;99.90
16970;DHT22;8601;48.718;8.992;2022-12-08T12:25:01;3.40;99.90
16970;DHT22;8601;48.718;8.992;2022-12-08T12:27:35;3.20;99.90
16970;DHT22;8601;48.718;8.992;2022-12-08T12:30:07;3.10;99.90
16970;DHT22;8601;48.718;8.992;2022-12-08T12:32:43;3.10;99.90
16970;DHT22;8601;48.718;8.992;2022-12-08T12:35:32;2.90;99.90
16970;DHT22;8601;48.718;8.992;2022-12-08T12:38:03;2.90;99.90
16970;DHT22;8601;48.718;8.992;2022-12-08T12:40:50;2.90;99.90
16970;DHT22;8601;48.718;8.992;2022-12-08T12:43:29;3.00;99.90
16970;DHT22;8601;48.718;8.992;2022-12-08T12:52:02;3.30;99.90
16970;DHT22;8601;48.718;8.992;2022-12-08T12:54:41;3.30;99.90
16970;DHT22;8601;48.718;8.992;2022-12-08T12:57:15;3.10;99.90
16970;DHT22;8601;48.718;8.992;2022-12-08T12:59:51;3.10;99.90
16970;DHT22;8601;48.718;8.992;2022-12-08T13:02:46;3.20;99.90
16970;DHT22;8601;48.718;8.992;2022-12-08T13:05:16;3.20;99.90
16970;DHT22;8601;48.718;8.992;2022-12-08T13:07:49;3.10;99.90
16970;DHT22;8601;48.718;8.992;2022-12-08T13:10:20;3.10;99.90
16970;DHT22;8601;48.718;8.992;2022-12-08T13:13:03;2.90;99.90
16970;DHT22;8601;48.718;8.992;2022-12-08T13:15:33;3.50;99.90
16970;DHT22;8601;48.718;8.992;2022-12-08T13:18:01;3.30;99.90
16970;DHT22;8601;48.718;8.992;2022-12-08T13:20:28;3.30;99.90
16970;DHT22;8601;48.718;8.992;2022-12-08T13:26:12;3.20;99.90
16970;DHT22;8601;48.718;8.992;2022-12-08T13:31:49;3.00;99.90
16970;DHT22;8601;48.718;8.992;2022-12-08T13:34:26;3.00;99.90
16970;DHT22;8601;48.718;8.992;2022-12-08T13:37:12;3.80;99.90
16970;DHT22;8601;48.718;8.992;2022-12-08T13:43:03;3.30;99.90
16970;DHT22;8601;48.718;8.992;2022-12-08T13:45:32;3.20;99.90
16970;DHT22;8601;48.718;8.992;2022-12-08T13:48:10;3.10;99.90
16970;DHT22;8601;48.718;8.992;2022-12-08T13:50:41;3.10;99.90
16970;DHT22;8601;48.718;8.992;2022-12-08T13:53:14;3.10;99.90
16970;DHT22;8601;48.718;8.992;2022-12-08T13:55:44;3.00;99.90
16970;DHT22;8601;48.718;8.992;2022-12-08T13:58:25;3.00;99.90
16970;DHT22;8601;48.718;8.992;2022-12-08T14:00:59;3.00;99.90
16970;DHT22;8601;48.718;8.992;2022-12-08T14:03:28;3.00;99.90
16970;DHT22;8601;48.718;8.992;2022-12-08T14:05:55;3.00;99.90
16970;DHT22;8601;48.718;8.992;2022-12-08T14:08:27;3.00;99.90
16970;DHT22;8601;48.718;8.992;2022-12-08T14:10:58;3.00;99.90
16970;DHT22;8601;48.718;8.992;2022-12-08T14:13:29;3.00;99.90
16970;DHT22;8601;48.718;8.992;2022-12-08T14:15:56;3.00;99.90
16970;DHT22;8601;48.718;8.992;2022-12-08T14:18:24;3.00;99.90
16970;DHT22;8601;48.718;8.992;2022-12-08T14:20:59;2.90;99.90
16970;DHT22;8601;48.718;8.992;2022-12-08T14:23:27;2.90;99.90
16970;DHT22;8601;48.718;8.992;2022-12-08T14:25:54;2.90;99.90
16970;DHT22;8601;48.718;8.992;2022-12-08T14:28:22;2.80;99.90
16970;DHT22;8601;48.718;8.992;2022-12-08T14:30:51;2.80;99.90
16970;DHT22;8601;48.718;8.992;2022-12-08T14:33:21;2.80;99.90
16970;DHT22;8601;48.718;8.992;2022-12-08T14:35:52;2.80;99.90
16970;DHT22;8601;48.718;8.992;2022-12-08T14:38:21;2.80;99.90
16970;DHT22;8601;48.718;8.992;2022-12-08T14:40:59;2.80;99.90
16970;DHT22;8601;48.718;8.992;2022-12-08T14:43:28;2.80;99.90
16970;DHT22;8601;48.718;8.992;2022-12-08T14:45:59;2.80;99.90
16970;DHT22;8601;48.718;8.992;2022-12-08T14:48:40;2.80;99.90
16970;DHT22;8601;48.718;8.992;2022-12-08T14:51:22;3.80;99.90
16970;DHT22;8601;48.718;8.992;2022-12-08T14:54:04;3.50;99.90
16970;DHT22;8601;48.718;8.992;2022-12-08T14:56:33;3.40;99.90
16970;DHT22;8601;48.718;8.992;2022-12-08T14:59:05;3.20;99.90
16970;DHT22;8601;48.718;8.992;2022-12-08T15:01:34;3.00;99.90
16970;DHT22;8601;48.718;8.992;2022-12-08T15:04:06;2.80;99.90
16970;DHT22;8601;48.718;8.992;2022-12-08T15:07:06;2.80;99.90
16970;DHT22;8601;48.718;8.992;2022-12-08T15:13:00;2.60;99.90
16970;DHT22;8601;48.718;8.992;2022-12-08T15:18:37;2.50;99.90
16970;DHT22;8601;48.718;8.992;2022-12-08T15:21:06;2.50;99.90
16970;DHT22;8601;48.718;8.992;2022-12-08T15:23:38;2.60;99.90
16970;DHT22;8601;48.718;8.992;2022-12-08T15:26:18;2.50;99.90
16970;DHT22;8601;48.718;8.992;2022-12-08T15:29:12;2.60;99.90
16970;DHT22;8601;48.718;8.992;2022-12-08T15:31:40;2.60;99.90
16970;DHT22;8601;48.718;8.992;2022-12-08T15:34:09;2.60;99.90
16970;DHT22;8601;48.718;8.992;2022-12-08T15:36:35;2.60;99.90
16970;DHT22;8601;48.718;8.992;2022-12-08T15:39:05;2.60;99.90
16970;DHT22;8601;48.718;8.992;2022-12-08T15:41:35;2.60;99.90
16970;DHT22;8601;48.718;8.992;2022-12-08T15:44:01;2.70;99.90
16970;DHT22;8601;48.718;8.992;2022-12-08T15:46:40;2.60;99.90
16970;DHT22;8601;48.718;8.992;2022-12-08T15:49:15;2.60;99.90
16970;DHT22;8601;48.718;8.992;2022-12-08T15:52:00;2.60;99.90
16970;DHT22;8601;48.718;8.992;2022-12-08T15:54:27;2.60;99.90
16970;DHT22;8601;48.718;8.992;2022-12-08T15:56:56;2.70;99.90
16970;DHT22;8601;48.718;8.992;2022-12-08T15:59:24;2.60;99.90
16970;DHT22;8601;48.718;8.992;2022-12-08T16:02:17;2.60;99.90
16970;DHT22;8601;48.718;8.992;2022-12-08T16:04:46;2.50;99.90
16970;DHT22;8601;48.718;8.992;2022-12-08T16:07:20;2.40;99.90
16970;DHT22;8601;48.718;8.992;2022-12-08T16:09:47;2.40;99.90
16970;DHT22;8601;48.718;8.992;2022-12-08T16:12:28;2.40;99.90
16970;DHT22;8601;48.718;8.992;2022-12-08T16:15:12;2.30;99.90
16970;DHT22;8601;48.718;8.992;2022-12-08T16:17:43;2.20;99.90
16970;DHT22;8601;48.718;8.992;2022-12-08T16:20:15;2.10;99.90
16970;DHT22;8601;48.718;8.992;2022-12-08T16:22:43;2.10;99.90
16970;DHT22;8601;48.718;8.992;2022-12-08T16:25:19;2.10;99.90
16970;DHT22;8601;48.718;8.992;2022-12-08T16:27:48;2.10;99.90
16970;DHT22;8601;48.718;8.992;2022-12-08T16:30:21;2.10;99.90
16970;DHT22;8601;48.718;8.992;2022-12-08T16:32:53;2.00;99.90
16970;DHT22;8601;48.718;8.992;2022-12-08T16:35:30;2.00;99.90
16970;DHT22;8601;48.718;8.992;2022-12-08T16:38:13;2.10;99.90
16970;DHT22;8601;48.718;8.992;2022-12-08T16:40:46;2.10;99.90
16970;DHT22;8601;48.718;8.992;2022-12-08T16:43:39;2.10;99.90
16970;DHT22;8601;48.718;8.992;2022-12-08T16:46:16;2.00;99.90
16970;DHT22;8601;48.718;8.992;2022-12-08T16:48:54;2.00;99.90
16970;DHT22;8601;48.718;8.992;2022-12-08T16:51:23;2.00;99.90
16970;DHT22;8601;48.718;8.992;2022-12-08T16:53:50;2.00;99.90
16970;DHT22;8601;48.718;8.992;2022-12-08T16:56:18;1.90;99.90
16970;DHT22;8601;48.718;8.992;2022-12-08T16:58:46;1.90;99.90
16970;DHT22;8601;48.718;8.992;2022-12-08T17:01:15;1.90;99.90
16970;DHT22;8601;48.718;8.992;2022-12-08T17:03:42;1.90;99.90